createdAt,value
2023-05-05T00:00:06.307Z,101674.25
2023-05-05T00:05:31.137Z,101688.45
2023-05-05T00:10:53.976Z,101681.89
2023-05-05T00:16:16.376Z,101674.89
2023-05-05T00:21:38.863Z,101688.20
2023-05-05T00:27:02.394Z,101680.25
2023-05-05T00:32:24.746Z,101696.23
2023-05-05T00:37:47.415Z,101691.05
2023-05-05T00:43:09.821Z,101693.64
2023-05-05T00:48:32.600Z,101687.55
2023-05-05T00:53:55.215Z,101694.02
2023-05-05T00:59:18.000Z,101698.68
2023-05-05T01:04:40.381Z,101690.86
2023-05-05T01:10:22.384Z,101700.88
2023-05-05T01:16:01.360Z,101699.27
2023-05-05T01:21:34.194Z,101707.63
2023-05-05T01:27:20.625Z,101698.00
2023-05-05T01:32:50.562Z,101690.38
2023-05-05T01:38:32.947Z,101687.20
2023-05-05T01:43:58.629Z,101691.04
2023-05-05T01:49:22.751Z,101694.91
2023-05-05T01:54:47.323Z,101694.69
2023-05-05T02:00:11.961Z,101693.03
2023-05-05T02:05:37.002Z,101698.03
2023-05-05T02:11:01.142Z,101689.27
2023-05-05T02:16:26.093Z,101698.31
2023-05-05T02:21:48.467Z,101690.44
2023-05-05T02:27:13.095Z,101699.53
2023-05-05T02:32:40.253Z,101690.72
2023-05-05T02:38:07.394Z,101691.73
2023-05-05T02:43:32.445Z,101685.65
2023-05-05T02:48:54.676Z,101683.80
2023-05-05T02:54:17.904Z,101686.47
2023-05-05T03:00:03.165Z,101694.69
2023-05-05T03:05:32.211Z,101682.19
2023-05-05T03:10:59.496Z,101684.78
2023-05-05T03:16:25.210Z,101685.65
2023-05-05T03:21:48.493Z,101698.11
2023-05-05T03:27:10.889Z,101696.22
2023-05-05T03:32:33.613Z,101703.22
2023-05-05T03:37:56.024Z,101695.13
2023-05-05T03:43:20.491Z,101706.84
2023-05-05T03:48:42.898Z,101708.56
2023-05-05T03:54:05.196Z,101717.30
2023-05-05T03:59:27.553Z,101720.92
2023-05-05T04:04:49.964Z,101720.05
2023-05-05T04:10:14.007Z,101721.22
2023-05-05T04:15:36.480Z,101711.16
2023-05-05T04:20:59.147Z,101717.25
2023-05-05T04:26:21.400Z,101725.13
2023-05-05T04:31:43.702Z,101724.11
2023-05-05T04:37:05.997Z,101728.39
2023-05-05T04:42:28.279Z,101733.34
2023-05-05T04:47:51.308Z,101745.30
2023-05-05T04:53:13.576Z,101757.73
2023-05-05T04:58:36.414Z,101759.67
2023-05-05T05:03:58.899Z,101766.83
2023-05-05T05:09:21.546Z,101782.08
2023-05-05T05:14:45.918Z,101781.06
2023-05-05T05:20:08.432Z,101797.19
2023-05-05T05:25:31.226Z,101801.91
2023-05-05T05:30:53.486Z,101798.20
2023-05-05T05:36:16.368Z,101800.89
2023-05-05T05:41:38.610Z,101800.73
2023-05-05T05:47:01.443Z,101807.10
2023-05-05T05:52:23.710Z,101814.03
2023-05-05T05:57:46.268Z,101803.48
2023-05-05T06:03:09.119Z,101805.88
2023-05-05T06:08:31.775Z,101800.73
2023-05-05T06:13:54.096Z,101801.03
2023-05-05T06:19:16.356Z,101808.83
2023-05-05T06:24:38.692Z,101819.80
2023-05-05T06:30:01.069Z,101822.47
2023-05-05T06:35:24.770Z,101826.17
2023-05-05T06:40:47.060Z,101827.03
2023-05-05T06:46:09.322Z,101828.20
2023-05-05T06:51:31.778Z,101822.10
2023-05-05T06:56:54.087Z,101826.58
2023-05-05T07:02:16.776Z,101828.65
2023-05-05T07:07:39.314Z,101834.27
2023-05-05T07:13:02.223Z,101831.17
2023-05-05T07:18:25.669Z,101830.91
2023-05-05T07:23:48.304Z,101838.70
2023-05-05T07:29:11.780Z,101832.21
2023-05-05T07:34:34.978Z,101839.81
2023-05-05T07:39:57.873Z,101828.59
2023-05-05T07:45:20.867Z,101827.84
2023-05-05T07:50:43.475Z,101833.67
2023-05-05T07:56:08.272Z,101841.51
2023-05-05T08:01:30.644Z,101849.59
2023-05-05T08:06:53.025Z,101833.55
2023-05-05T08:12:17.037Z,101846.49
2023-05-05T08:17:44.066Z,101858.62
2023-05-05T08:23:22.875Z,101850.81
2023-05-05T08:28:49.163Z,101858.16
2023-05-05T08:34:11.957Z,101853.41
2023-05-05T08:39:34.404Z,101858.67
2023-05-05T08:44:58.877Z,101859.15
2023-05-05T08:50:23.239Z,101859.46
2023-05-05T08:56:01.969Z,101864.17
2023-05-05T09:01:24.817Z,101865.40
2023-05-05T09:06:47.906Z,101881.22
2023-05-05T09:12:11.787Z,101876.29
2023-05-05T09:17:45.050Z,101876.64
2023-05-05T09:23:09.530Z,101875.03
2023-05-05T09:28:37.877Z,101876.72
2023-05-05T09:39:35.358Z,101876.47
2023-05-05T09:45:05.950Z,101893.31
2023-05-05T09:50:23.840Z,101881.93
2023-05-05T09:55:46.180Z,101880.87
2023-05-05T10:01:09.670Z,101875.81
2023-05-05T10:06:50.665Z,101874.85
2023-05-05T10:12:14.533Z,101873.08
2023-05-05T10:18:02.372Z,101885.54
2023-05-05T10:23:15.930Z,101875.66
2023-05-05T10:28:55.438Z,101879.56
2023-05-05T10:34:44.176Z,101869.80
2023-05-05T10:40:08.859Z,101869.80
2023-05-05T10:45:31.620Z,101856.28
2023-05-05T10:51:39.978Z,101861.31
2023-05-05T10:57:04.252Z,101856.97
2023-05-05T11:02:41.757Z,101852.84
2023-05-05T11:08:05.456Z,101845.48
2023-05-05T11:13:33.036Z,101838.94
2023-05-05T11:18:56.322Z,101835.21
2023-05-05T11:24:36.224Z,101835.19
2023-05-05T11:30:19.106Z,101826.30
2023-05-05T11:36:02.811Z,101811.27
2023-05-05T11:42:20.329Z,101814.53
2023-05-05T11:47:45.078Z,101817.88
2023-05-05T11:53:07.742Z,101810.53
2023-05-05T11:58:36.668Z,101810.69
2023-05-05T12:04:00.059Z,101802.82
2023-05-05T12:09:29.725Z,101804.49
2023-05-05T12:14:59.404Z,101807.38
2023-05-05T12:20:22.183Z,101799.08
2023-05-05T12:25:48.425Z,101791.14
2023-05-05T12:31:17.215Z,101783.78
2023-05-05T12:36:40.494Z,101782.03
2023-05-05T12:42:04.997Z,101782.75
2023-05-05T12:47:37.957Z,101777.31
2023-05-05T12:53:01.767Z,101768.58
2023-05-05T12:58:24.152Z,101773.17
2023-05-05T13:03:47.221Z,101756.84
2023-05-05T13:09:14.129Z,101763.58
2023-05-05T13:14:36.729Z,101760.20
2023-05-05T13:19:58.972Z,101750.18
2023-05-05T13:25:21.851Z,101761.31
2023-05-05T13:30:44.799Z,101740.22
2023-05-05T13:36:08.897Z,101747.77
2023-05-05T13:41:32.272Z,101737.17
2023-05-05T13:46:55.739Z,101731.75
2023-05-05T13:52:18.448Z,101735.98
2023-05-05T13:57:41.083Z,101731.83
2023-05-05T14:03:03.763Z,101734.19
2023-05-05T14:08:26.651Z,101727.05
2023-05-05T14:13:49.215Z,101727.30
2023-05-05T14:19:11.619Z,101723.09
2023-05-05T14:24:33.950Z,101729.08
2023-05-05T14:29:56.665Z,101724.19
2023-05-05T14:35:19.594Z,101719.33
2023-05-05T14:40:42.092Z,101716.97
2023-05-05T14:46:06.115Z,101713.14
2023-05-05T14:51:28.671Z,101714.52
2023-05-05T14:56:51.825Z,101716.83
2023-05-05T15:02:14.471Z,101717.09
2023-05-05T15:07:37.018Z,101717.95
2023-05-05T15:12:59.494Z,101704.28
2023-05-05T15:18:22.213Z,101703.52
2023-05-05T15:23:44.736Z,101707.13
2023-05-05T15:29:07.514Z,101709.23
2023-05-05T15:34:29.927Z,101715.79
2023-05-05T15:39:52.245Z,101714.68
2023-05-05T15:45:16.293Z,101713.55
2023-05-05T15:50:38.691Z,101701.27
2023-05-05T15:56:01.333Z,101700.17
2023-05-05T16:01:23.933Z,101718.80
2023-05-05T16:06:47.487Z,101714.91
2023-05-05T16:12:13.511Z,101716.67
2023-05-05T16:17:36.347Z,101710.17
2023-05-05T16:22:59.261Z,101704.33
2023-05-05T16:28:22.428Z,101706.30
2023-05-05T16:33:45.834Z,101707.48
2023-05-05T16:39:08.723Z,101702.23
2023-05-05T16:44:31.355Z,101704.27
2023-05-05T16:49:53.782Z,101716.06
2023-05-05T16:55:16.427Z,101705.05
2023-05-05T17:00:39.957Z,101710.91
2023-05-05T17:06:02.620Z,101719.50
2023-05-05T17:11:24.962Z,101729.32
2023-05-05T17:16:47.776Z,101724.92
2023-05-05T17:22:10.288Z,101722.77
2023-05-05T17:27:32.956Z,101736.59
2023-05-05T17:32:56.130Z,101730.30
2023-05-05T17:38:20.089Z,101734.85
2023-05-05T17:43:42.808Z,101735.80
2023-05-05T17:49:06.068Z,101740.66
2023-05-05T17:54:29.460Z,101747.03
2023-05-05T17:59:53.901Z,101744.48
2023-05-05T18:05:16.862Z,101743.56
2023-05-05T18:10:39.570Z,101744.45
2023-05-05T18:16:02.687Z,101748.14
2023-05-05T18:21:31.372Z,101745.48
2023-05-05T18:26:55.680Z,101746.79
2023-05-05T18:32:19.117Z,101756.59
2023-05-05T18:37:42.684Z,101760.88
2023-05-05T18:43:05.507Z,101764.30
2023-05-05T18:48:28.200Z,101775.44
2023-05-05T18:53:50.603Z,101769.58
2023-05-05T18:59:13.048Z,101775.58
2023-05-05T19:04:37.107Z,101780.68
2023-05-05T19:09:59.408Z,101783.77
2023-05-05T19:15:22.160Z,101775.63
2023-05-05T19:20:45.046Z,101774.30
2023-05-05T19:26:09.388Z,101781.92
2023-05-05T19:31:31.822Z,101784.05
2023-05-05T19:36:54.358Z,101784.45
2023-05-05T19:42:17.053Z,101784.05
2023-05-05T19:47:39.690Z,101777.18
2023-05-05T19:53:02.570Z,101789.48
2023-05-05T19:58:25.041Z,101782.86
2023-05-05T20:03:48.156Z,101786.53
2023-05-05T20:09:11.336Z,101778.42
2023-05-05T20:14:33.814Z,101775.76
2023-05-05T20:19:58.238Z,101768.06
2023-05-05T20:25:21.029Z,101777.09
2023-05-05T20:30:43.298Z,101765.06
2023-05-05T20:36:06.003Z,101762.70
2023-05-05T20:41:28.335Z,101760.96
2023-05-05T20:47:18.489Z,101761.23
2023-05-05T20:52:53.134Z,101753.16
2023-05-05T20:58:16.921Z,101757.25
2023-05-05T21:03:39.175Z,101754.75
2023-05-05T21:09:02.062Z,101749.35
2023-05-05T21:14:24.715Z,101757.64
2023-05-05T21:19:47.137Z,101761.17
2023-05-05T21:25:21.088Z,101747.91
2023-05-05T21:30:44.266Z,101755.11
2023-05-05T21:36:07.352Z,101755.05
2023-05-05T21:41:30.051Z,101758.64
2023-05-05T21:46:53.063Z,101758.58
2023-05-05T21:52:15.256Z,101756.78
2023-05-05T21:57:37.654Z,101748.20
2023-05-05T22:02:59.920Z,101755.45
2023-05-05T22:08:22.362Z,101752.86
2023-05-05T22:13:44.598Z,101753.08
2023-05-05T22:19:07.114Z,101756.00
2023-05-05T22:24:29.626Z,101738.37
2023-05-05T22:29:51.857Z,101737.78
2023-05-05T22:35:14.331Z,101729.70
2023-05-05T22:40:36.556Z,101727.44
2023-05-05T22:45:59.290Z,101724.13
2023-05-05T22:51:21.531Z,101713.53
2023-05-05T22:56:43.886Z,101707.42
2023-05-05T23:02:06.154Z,101704.77
2023-05-05T23:07:28.389Z,101707.49
2023-05-05T23:12:50.804Z,101705.81
2023-05-05T23:18:13.361Z,101708.55
2023-05-05T23:23:36.148Z,101710.62
2023-05-05T23:28:58.515Z,101709.88
2023-05-05T23:34:21.316Z,101707.20
2023-05-05T23:39:45.162Z,101709.88
2023-05-05T23:45:07.557Z,101711.81
2023-05-05T23:50:30.583Z,101703.89
2023-05-05T23:55:53.051Z,101708.28
